Time;durP1;ratioP1;P1;durP2;ratioP2;P2;SDS_P1;SDS_P2;PMS_P1;PMS_P2;Temp;Humidity;BMP_temperature;BMP_pressure;BME280_temperature;BME280_humidity;BME280_pressure;Samples;Min_cycle;Max_cycle;Signal;HPM_P1;HPM_P2
2022/10/03 00:05:01;;;;;;;4.50;1.90;;;;;;;;;;10409201;28;20378;-63
2022/10/03 00:10:09;;;;;;;5.57;2.03;;;;;;;;;;10408880;28;20039;-62
2022/10/03 00:15:12;;;;;;;4.53;1.95;;;;;;;;;;10409111;28;20128;-63
2022/10/03 00:20:31;;;;;;;4.68;2.22;;;;;;;;;;10409396;28;20029;-52
2022/10/03 00:25:50;;;;;;;5.18;1.80;;;;;;;;;;10409032;28;20025;-52
2022/10/03 00:31:04;;;;;;;7.10;2.20;;;;;;;;;;10408513;28;20057;-52
2022/10/03 00:36:08;;;;;;;3.17;1.63;;;;;;;;;;10413971;28;20265;-54
2022/10/03 00:41:08;;;;;;;9.57;2.15;;;;;;;;;;10417635;28;20098;-54
2022/10/03 00:46:29;;;;;;;2.70;1.90;;;;;;;;;;10416408;28;20034;-53
2022/10/03 00:51:44;;;;;;;2.10;1.60;;;;;;;;;;10416526;28;20022;-61
2022/10/03 00:57:02;;;;;;;3.80;1.73;;;;;;;;;;10416291;28;20048;-62
2022/10/03 01:02:21;;;;;;;4.43;1.80;;;;;;;;;;10417063;28;20021;-64
2022/10/03 01:07:40;;;;;;;4.57;1.80;;;;;;;;;;10415535;28;20060;-64
2022/10/03 01:12:59;;;;;;;5.10;1.65;;;;;;;;;;10415336;28;20042;-63
2022/10/03 01:18:07;;;;;;;4.45;1.63;;;;;;;;;;10415824;28;20037;-63
2022/10/03 01:23:28;;;;;;;4.30;1.95;;;;;;;;;;10415607;28;20040;-64
2022/10/03 01:34:02;;;;;;;3.55;1.77;;;;;;;;;;10414803;28;20025;-60
2022/10/03 01:39:28;;;;;;;4.57;1.83;;;;;;;;;;10414606;28;20107;-64
2022/10/03 01:44:29;;;;;;;2.35;1.77;;;;;;;;;;10383156;28;20381;-63
2022/10/03 01:49:36;;;;;;;2.88;1.80;;;;;;;;;;10414766;28;20032;-64
2022/10/03 01:54:49;;;;;;;4.85;2.42;;;;;;;;;;10414060;28;20029;-64
2022/10/03 01:59:49;;;;;;;4.63;2.00;;;;;;;;;;10414487;28;20037;-61
2022/10/03 02:04:58;;;;;;;3.05;2.00;;;;;;;;;;10414018;28;20032;-62
2022/10/03 02:10:01;;;;;;;5.82;2.20;;;;;;;;;;10413644;28;20021;-59
2022/10/03 02:15:04;;;;;;;5.45;2.05;;;;;;;;;;10413030;28;20052;-62
2022/10/03 02:20:24;;;;;;;4.03;2.38;;;;;;;;;;10413463;28;20030;-63
2022/10/03 02:25:30;;;;;;;3.42;2.20;;;;;;;;;;10413152;28;20120;-62
2022/10/03 02:30:36;;;;;;;4.72;2.10;;;;;;;;;;10413328;28;20026;-63
2022/10/03 02:35:56;;;;;;;3.60;2.42;;;;;;;;;;10413190;28;20033;-61
2022/10/03 02:41:08;;;;;;;3.58;2.15;;;;;;;;;;10412208;28;20103;-62
2022/10/03 02:46:28;;;;;;;6.55;1.95;;;;;;;;;;10412123;28;20539;-64
2022/10/03 02:51:40;;;;;;;2.67;1.95;;;;;;;;;;10411541;28;20044;-64
2022/10/03 02:56:40;;;;;;;2.85;1.80;;;;;;;;;;10410914;28;20033;-63
2022/10/03 03:01:43;;;;;;;3.25;1.85;;;;;;;;;;10411384;28;20029;-64
2022/10/03 03:06:53;;;;;;;3.38;2.15;;;;;;;;;;10411611;28;20032;-64
2022/10/03 03:11:55;;;;;;;2.67;2.08;;;;;;;;;;10411839;28;20026;-58
2022/10/03 03:16:58;;;;;;;1.98;1.65;;;;;;;;;;10410914;28;20061;-65
2022/10/03 03:22:13;;;;;;;2.13;1.90;;;;;;;;;;10411217;28;20017;-65
2022/10/03 03:27:16;;;;;;;4.70;1.95;;;;;;;;;;10411014;28;20277;-57
2022/10/03 03:32:23;;;;;;;3.25;1.60;;;;;;;;;;10410151;28;20025;-58
2022/10/03 03:37:24;;;;;;;5.78;2.03;;;;;;;;;;10410492;28;20092;-57
2022/10/03 03:42:27;;;;;;;3.50;1.67;;;;;;;;;;10410264;28;20033;-58
2022/10/03 03:47:33;;;;;;;3.28;1.67;;;;;;;;;;10410325;28;20469;-57
2022/10/03 03:52:42;;;;;;;1.75;1.52;;;;;;;;;;10410169;28;20109;-63
2022/10/03 03:57:45;;;;;;;2.33;1.88;;;;;;;;;;10409566;28;20029;-63
2022/10/03 04:03:04;;;;;;;2.15;1.55;;;;;;;;;;10409355;28;20049;-63
2022/10/03 04:08:23;;;;;;;1.90;1.63;;;;;;;;;;10409000;28;20037;-62
2022/10/03 04:13:23;;;;;;;2.00;1.60;;;;;;;;;;10409208;28;20056;-63
2022/10/03 04:23:56;;;;;;;3.38;1.85;;;;;;;;;;10409407;28;20034;-65
2022/10/03 04:28:57;;;;;;;1.75;1.40;;;;;;;;;;10409298;28;20597;-64
2022/10/03 04:34:13;;;;;;;2.80;1.45;;;;;;;;;;10409038;28;20279;-64
2022/10/03 04:39:16;;;;;;;1.77;1.35;;;;;;;;;;10409618;28;20037;-55
2022/10/03 04:44:20;;;;;;;2.17;1.58;;;;;;;;;;10408400;28;20443;-58
2022/10/03 04:49:29;;;;;;;4.10;1.80;;;;;;;;;;10408905;28;20021;-57
2022/10/03 04:54:30;;;;;;;4.82;1.70;;;;;;;;;;10408148;28;20042;-57
2022/10/03 05:00:08;;;;;;;1.73;1.48;;;;;;;;;;10408560;28;20032;-58
2022/10/03 05:05:15;;;;;;;4.88;1.38;;;;;;;;;;10238556;29;20079;-54
2022/10/03 05:10:18;;;;;;;2.33;1.42;;;;;;;;;;10240628;29;20047;-55
2022/10/03 05:15:26;;;;;;;2.75;1.25;;;;;;;;;;10240180;29;20039;-54
2022/10/03 05:20:26;;;;;;;10.52;2.03;;;;;;;;;;10241841;28;20476;-58
2022/10/03 05:25:31;;;;;;;9.82;1.70;;;;;;;;;;10246573;29;20174;-58
2022/10/03 05:30:34;;;;;;;11.10;2.10;;;;;;;;;;10247175;29;20158;-58
2022/10/03 05:35:53;;;;;;;7.10;2.17;;;;;;;;;;10362090;28;20045;-58
2022/10/03 05:41:07;;;;;;;6.72;2.17;;;;;;;;;;10414327;28;20025;-59
2022/10/03 05:46:18;;;;;;;8.73;2.40;;;;;;;;;;10414176;28;20029;-55
2022/10/03 05:51:38;;;;;;;9.75;2.25;;;;;;;;;;10412723;28;20021;-56
2022/10/03 05:56:55;;;;;;;7.35;2.30;;;;;;;;;;10413639;28;20025;-56
2022/10/03 06:02:05;;;;;;;6.03;2.63;;;;;;;;;;10413934;28;20033;-57
2022/10/03 06:07:24;;;;;;;7.38;2.13;;;;;;;;;;10412549;28;20061;-55
2022/10/03 06:12:30;;;;;;;5.78;2.38;;;;;;;;;;10412643;28;20385;-56
2022/10/03 06:17:37;;;;;;;6.05;2.47;;;;;;;;;;10413088;28;20532;-56
2022/10/03 06:22:56;;;;;;;5.18;2.22;;;;;;;;;;10412907;28;20029;-57
2022/10/03 06:28:03;;;;;;;4.97;2.40;;;;;;;;;;10412309;28;20042;-57
2022/10/03 06:33:32;;;;;;;8.43;2.35;;;;;;;;;;10411551;28;20029;-59
2022/10/03 06:38:35;;;;;;;11.68;2.88;;;;;;;;;;10412309;28;20025;-59
2022/10/03 06:43:55;;;;;;;3.17;2.03;;;;;;;;;;10412549;28;20030;-58
2022/10/03 06:49:14;;;;;;;7.30;2.65;;;;;;;;;;10412121;28;20076;-57
2022/10/03 06:54:37;;;;;;;4.93;2.40;;;;;;;;;;10411822;28;20057;-56
2022/10/03 06:59:48;;;;;;;4.45;2.00;;;;;;;;;;10411267;28;20079;-58
2022/10/03 07:04:49;;;;;;;4.13;1.85;;;;;;;;;;10411125;28;20040;-57
2022/10/03 07:10:01;;;;;;;3.38;2.28;;;;;;;;;;10411635;28;20492;-58
2022/10/03 07:15:01;;;;;;;3.83;2.17;;;;;;;;;;10410402;28;20048;-59
2022/10/03 07:20:24;;;;;;;8.80;2.22;;;;;;;;;;10410404;28;20025;-57
2022/10/03 07:25:33;;;;;;;6.25;2.35;;;;;;;;;;10410331;28;20041;-56
2022/10/03 07:30:52;;;;;;;6.65;2.42;;;;;;;;;;10409699;28;20026;-60
2022/10/03 07:41:43;;;;;;;3.03;1.85;;;;;;;;;;10409500;28;20481;-57
2022/10/03 07:47:03;;;;;;;2.65;2.00;;;;;;;;;;10409506;28;20052;-59
2022/10/03 07:52:03;;;;;;;7.85;1.95;;;;;;;;;;10409480;28;20485;-61
2022/10/03 07:57:13;;;;;;;2.33;1.60;;;;;;;;;;10409827;28;20033;-59
2022/10/03 08:02:29;;;;;;;5.32;1.98;;;;;;;;;;10408069;28;20088;-63
2022/10/03 08:07:52;;;;;;;3.45;1.90;;;;;;;;;;10408346;28;20057;-59
2022/10/03 08:13:25;;;;;;;2.67;1.83;;;;;;;;;;10370826;28;20045;-58
2022/10/03 08:18:31;;;;;;;2.70;1.80;;;;;;;;;;10364273;28;20287;-58
2022/10/03 08:23:34;;;;;;;1.67;1.58;;;;;;;;;;10408847;28;20026;-59
2022/10/03 08:28:53;;;;;;;5.72;1.65;;;;;;;;;;10408306;28;20029;-59
2022/10/03 08:34:11;;;;;;;4.28;1.70;;;;;;;;;;10408587;28;20041;-57
2022/10/03 08:39:17;;;;;;;1.92;1.60;;;;;;;;;;10407825;28;20025;-61
2022/10/03 08:44:20;;;;;;;5.15;1.83;;;;;;;;;;10408258;28;20083;-64
2022/10/03 08:49:39;;;;;;;2.90;1.88;;;;;;;;;;10408192;28;20469;-58
2022/10/03 08:54:46;;;;;;;2.25;1.50;;;;;;;;;;10408833;28;20041;-58
2022/10/03 09:00:04;;;;;;;3.30;1.90;;;;;;;;;;10416204;28;20040;-56
2022/10/03 09:05:23;;;;;;;3.78;1.83;;;;;;;;;;10416326;28;20039;-57
2022/10/03 09:10:23;;;;;;;;;;;;;;;;;;10416510;28;20025;-58
2022/10/03 09:15:42;;;;;;;4.15;1.60;;;;;;;;;;10414677;28;20360;-57
2022/10/03 09:20:43;;;;;;;5.10;1.83;;;;;;;;;;10414244;28;20026;-59
2022/10/03 09:26:01;;;;;;;6.22;1.50;;;;;;;;;;10414622;28;20032;-58
2022/10/03 09:31:20;;;;;;;4.75;1.90;;;;;;;;;;10414862;28;20025;-59
2022/10/03 09:36:20;;;;;;;;;;;;;;;;;;10415197;28;20030;-54
2022/10/03 09:41:30;;;;;;;5.15;1.77;;;;;;;;;;10414442;28;19974;-57
2022/10/03 09:47:21;;;;;;;1.80;1.58;;;;;;;;;;10414430;28;20034;-57
2022/10/03 09:52:27;;;;;;;3.88;1.67;;;;;;;;;;10413730;28;20060;-56
2022/10/03 09:57:30;;;;;;;3.13;1.77;;;;;;;;;;10413871;28;20028;-58
2022/10/03 10:02:54;;;;;;;4.47;1.70;;;;;;;;;;10413890;28;20116;-60
2022/10/03 10:07:55;;;;;;;2.75;1.90;;;;;;;;;;10412786;28;20119;-55
2022/10/03 10:13:14;;;;;;;4.67;1.70;;;;;;;;;;10412696;28;20073;-56
2022/10/03 10:18:34;;;;;;;2.25;1.65;;;;;;;;;;10412802;28;20029;-56
2022/10/03 10:23:54;;;;;;;1.90;1.60;;;;;;;;;;10371665;28;20034;-56
2022/10/03 10:29:01;;;;;;;2.28;1.65;;;;;;;;;;10412976;28;20110;-56
2022/10/03 10:34:01;;;;;;;2.92;1.70;;;;;;;;;;10412177;28;20068;-56
2022/10/03 10:39:04;;;;;;;3.55;1.95;;;;;;;;;;10411757;28;20113;-56
2022/10/03 10:44:23;;;;;;;3.30;2.05;;;;;;;;;;10412414;28;20060;-56
2022/10/03 10:49:26;;;;;;;4.53;1.80;;;;;;;;;;10411832;28;20036;-56
2022/10/03 10:54:26;;;;;;;3.65;2.10;;;;;;;;;;10412069;28;20057;-58
2022/10/03 10:59:37;;;;;;;1.80;1.40;;;;;;;;;;10411503;28;20462;-56
2022/10/03 11:04:49;;;;;;;5.03;1.67;;;;;;;;;;10411083;28;20067;-55
2022/10/03 11:09:59;;;;;;;2.13;1.40;;;;;;;;;;10410103;28;20033;-61
2022/10/03 11:15:08;;;;;;;1.55;1.40;;;;;;;;;;10410731;28;20132;-58
2022/10/03 11:20:17;;;;;;;1.75;1.65;;;;;;;;;;10410677;28;20033;-61
2022/10/03 11:25:36;;;;;;;2.65;1.88;;;;;;;;;;10410798;28;20029;-61
2022/10/03 11:30:37;;;;;;;3.67;1.85;;;;;;;;;;10410509;28;20033;-56
2022/10/03 11:35:58;;;;;;;4.40;1.83;;;;;;;;;;10409405;28;20032;-64
2022/10/03 11:41:18;;;;;;;3.00;1.85;;;;;;;;;;10409721;28;20385;-58
2022/10/03 11:46:35;;;;;;;4.82;1.60;;;;;;;;;;10391743;28;20037;-58
2022/10/03 11:51:39;;;;;;;8.73;1.70;;;;;;;;;;10409565;28;20029;-60
2022/10/03 11:56:50;;;;;;;7.30;1.88;;;;;;;;;;10409107;28;20029;-58
2022/10/03 12:01:54;;;;;;;1.70;1.48;;;;;;;;;;10409147;28;20029;-57
2022/10/03 12:12:28;;;;;;;4.07;1.65;;;;;;;;;;10408634;28;20053;-57
2022/10/03 12:17:39;;;;;;;1.98;1.75;;;;;;;;;;10409265;28;20141;-60
2022/10/03 12:22:58;;;;;;;6.50;1.50;;;;;;;;;;10409145;28;20034;-58
2022/10/03 12:28:17;;;;;;;6.32;2.00;;;;;;;;;;10408858;28;20453;-56
2022/10/03 12:33:20;;;;;;;3.10;1.90;;;;;;;;;;10416568;28;20108;-54
2022/10/03 12:38:27;;;;;;;3.33;1.98;;;;;;;;;;10416730;28;20029;-56
2022/10/03 12:43:37;;;;;;;1.75;1.52;;;;;;;;;;10416844;28;20083;-56
2022/10/03 12:48:42;;;;;;;5.85;2.00;;;;;;;;;;10416907;28;20036;-56
2022/10/03 12:54:01;;;;;;;3.72;1.85;;;;;;;;;;10416552;28;20060;-59
2022/10/03 12:59:04;;;;;;;3.00;2.08;;;;;;;;;;10415853;28;20201;-57
2022/10/03 13:04:25;;;;;;;6.90;2.00;;;;;;;;;;10415740;28;20434;-58
2022/10/03 13:09:37;;;;;;;2.03;1.92;;;;;;;;;;10414968;28;20046;-56
2022/10/03 13:14:56;;;;;;;3.90;2.30;;;;;;;;;;10415446;28;20045;-58
2022/10/03 13:20:23;;;;;;;4.72;2.00;;;;;;;;;;10414569;28;20507;-56
2022/10/03 13:25:33;;;;;;;3.03;1.95;;;;;;;;;;10410571;28;20045;-58
2022/10/03 13:30:43;;;;;;;3.03;2.33;;;;;;;;;;10415068;28;20026;-56
2022/10/03 13:35:57;;;;;;;3.72;2.40;;;;;;;;;;10414777;28;20025;-57
2022/10/03 13:41:16;;;;;;;8.88;2.20;;;;;;;;;;10414514;28;20079;-60
2022/10/03 13:46:20;;;;;;;4.25;2.20;;;;;;;;;;10414406;28;20269;-56
2022/10/03 13:51:44;;;;;;;2.33;2.10;;;;;;;;;;10415186;28;20025;-57
2022/10/03 13:56:49;;;;;;;4.93;2.40;;;;;;;;;;10403280;28;20099;-58
2022/10/03 14:01:59;;;;;;;3.33;1.83;;;;;;;;;;10414606;28;20101;-57
2022/10/03 14:07:02;;;;;;;6.22;1.70;;;;;;;;;;10413883;28;20506;-57
2022/10/03 14:12:35;;;;;;;5.10;1.90;;;;;;;;;;10413663;28;20129;-57
2022/10/03 14:17:35;;;;;;;6.90;2.10;;;;;;;;;;10368856;28;20065;-58
2022/10/03 14:22:41;;;;;;;3.83;1.88;;;;;;;;;;10413126;28;20034;-62
2022/10/03 14:27:48;;;;;;;4.95;2.10;;;;;;;;;;10413197;28;20376;-56
2022/10/03 14:33:24;;;;;;;2.08;1.63;;;;;;;;;;10412552;28;20033;-57
2022/10/03 14:43:57;;;;;;;2.75;2.00;;;;;;;;;;10245462;29;20525;-58
2022/10/03 14:49:02;;;;;;;2.53;2.00;;;;;;;;;;10244361;29;20046;-57
2022/10/03 14:54:28;;;;;;;4.07;1.90;;;;;;;;;;10243194;28;20047;-58
2022/10/03 14:59:32;;;;;;;2.67;1.88;;;;;;;;;;10241338;29;20122;-56
2022/10/03 15:04:33;;;;;;;1.90;1.80;;;;;;;;;;10243580;29;20122;-55
2022/10/03 15:09:37;;;;;;;2.20;2.00;;;;;;;;;;10274705;28;20038;-56
2022/10/03 15:14:40;;;;;;;2.10;1.90;;;;;;;;;;10411118;28;20042;-58
2022/10/03 15:19:46;;;;;;;2.50;2.10;;;;;;;;;;10410859;28;20071;-56
2022/10/03 15:24:47;;;;;;;4.03;2.30;;;;;;;;;;10410501;28;20032;-56
2022/10/03 15:29:56;;;;;;;4.32;2.22;;;;;;;;;;10410457;28;20032;-56
2022/10/03 15:34:59;;;;;;;2.45;1.85;;;;;;;;;;10410746;28;20076;-57
2022/10/03 15:40:02;;;;;;;1.90;1.70;;;;;;;;;;10410135;28;20312;-56
2022/10/03 15:45:05;;;;;;;1.70;1.60;;;;;;;;;;10409930;28;20029;-57
2022/10/03 15:50:07;;;;;;;3.03;1.90;;;;;;;;;;10410234;28;20037;-56
2022/10/03 15:55:18;;;;;;;2.33;1.90;;;;;;;;;;10409600;28;20025;-56
2022/10/03 16:00:27;;;;;;;2.17;1.95;;;;;;;;;;10410132;28;20034;-55
2022/10/03 16:05:27;;;;;;;;;;;;;;;;;;10410076;28;20473;-57
2022/10/03 16:10:31;;;;;;;2.85;1.80;;;;;;;;;;10409739;28;20003;-58
2022/10/03 16:15:35;;;;;;;3.80;2.03;;;;;;;;;;10408884;28;20072;-61
2022/10/03 16:20:40;;;;;;;16.90;2.10;;;;;;;;;;10408289;28;20056;-59
2022/10/03 16:25:54;;;;;;;4.53;1.90;;;;;;;;;;10408338;28;20037;-60
2022/10/03 16:30:57;;;;;;;3.13;2.00;;;;;;;;;;10409066;28;20108;-58
2022/10/03 16:35:59;;;;;;;5.03;1.90;;;;;;;;;;10407879;28;20075;-61
2022/10/03 16:41:02;;;;;;;5.45;2.05;;;;;;;;;;10408524;28;20136;-60
2022/10/03 16:46:13;;;;;;;5.38;2.00;;;;;;;;;;10405755;28;20569;-53
2022/10/03 16:51:25;;;;;;;3.17;1.92;;;;;;;;;;10408338;28;20034;-53
2022/10/03 16:56:29;;;;;;;5.55;2.10;;;;;;;;;;10407093;28;20053;-55
2022/10/03 17:01:37;;;;;;;8.05;2.63;;;;;;;;;;10406330;28;20469;-57
2022/10/03 17:06:38;;;;;;;2.85;2.55;;;;;;;;;;10408353;28;20103;-55
2022/10/03 17:11:41;;;;;;;3.90;2.60;;;;;;;;;;10408350;28;20036;-54
2022/10/03 17:16:46;;;;;;;4.22;3.33;;;;;;;;;;10410267;28;20049;-54
2022/10/03 17:21:52;;;;;;;6.57;3.53;;;;;;;;;;10414784;28;20499;-56
2022/10/03 17:26:54;;;;;;;4.88;3.60;;;;;;;;;;10414337;28;20083;-56
2022/10/03 17:31:54;;;;;;;6.72;3.47;;;;;;;;;;10414928;28;20057;-59
2022/10/03 17:37:02;;;;;;;5.10;3.10;;;;;;;;;;10414678;28;20057;-53
2022/10/03 17:42:03;;;;;;;3.22;2.85;;;;;;;;;;10414827;28;20030;-54
2022/10/03 17:47:11;;;;;;;5.15;3.10;;;;;;;;;;10414101;28;20040;-55
2022/10/03 17:52:15;;;;;;;3.13;2.33;;;;;;;;;;10413866;28;20079;-55
2022/10/03 17:57:24;;;;;;;6.78;2.80;;;;;;;;;;10414458;28;20025;-57
2022/10/03 18:02:44;;;;;;;5.25;2.55;;;;;;;;;;10413983;28;20057;-56
2022/10/03 18:07:45;;;;;;;5.28;2.53;;;;;;;;;;10413052;28;20116;-53
2022/10/03 18:12:47;;;;;;;4.70;2.25;;;;;;;;;;10413619;28;20054;-54
2022/10/03 18:17:55;;;;;;;4.57;2.40;;;;;;;;;;10413347;28;20061;-55
2022/10/03 18:22:58;;;;;;;6.55;2.10;;;;;;;;;;10413104;28;20374;-56
2022/10/03 18:28:02;;;;;;;5.53;2.53;;;;;;;;;;10395347;28;20034;-57
2022/10/03 18:33:04;;;;;;;2.20;2.00;;;;;;;;;;10413317;28;20025;-54
2022/10/03 18:38:19;;;;;;;5.88;2.10;;;;;;;;;;10413169;28;20129;-56
2022/10/03 18:43:31;;;;;;;2.38;1.92;;;;;;;;;;10412279;28;20052;-56
2022/10/03 18:48:39;;;;;;;3.88;1.98;;;;;;;;;;10412579;28;20076;-63
2022/10/03 18:53:45;;;;;;;2.17;2.00;;;;;;;;;;10411207;28;20120;-56
2022/10/03 18:58:52;;;;;;;3.83;1.90;;;;;;;;;;10411368;28;20477;-56
2022/10/03 19:04:01;;;;;;;3.05;2.03;;;;;;;;;;10411194;28;20106;-57
2022/10/03 19:09:21;;;;;;;3.95;1.90;;;;;;;;;;10410950;28;20040;-56
2022/10/03 19:14:27;;;;;;;2.75;1.90;;;;;;;;;;10410581;28;20124;-56
2022/10/03 19:19:37;;;;;;;3.33;1.90;;;;;;;;;;10411151;28;20064;-59
2022/10/03 19:24:41;;;;;;;2.80;1.90;;;;;;;;;;10409179;28;20074;-64
2022/10/03 19:29:44;;;;;;;3.92;2.00;;;;;;;;;;10408860;28;20366;-57
2022/10/03 19:34:46;;;;;;;2.10;1.88;;;;;;;;;;10409460;28;20040;-58
2022/10/03 19:39:47;;;;;;;2.60;2.00;;;;;;;;;;10408773;28;20389;-58
2022/10/03 19:44:47;;;;;;;5.13;2.58;;;;;;;;;;10409255;28;20025;-56
2022/10/03 19:50:00;;;;;;;5.95;2.00;;;;;;;;;;10408499;28;20025;-61
2022/10/03 19:55:03;;;;;;;4.55;2.28;;;;;;;;;;10408937;28;20025;-56
2022/10/03 20:00:24;;;;;;;11.82;3.35;;;;;;;;;;10409279;28;20112;-57
2022/10/03 20:05:30;;;;;;;13.60;2.92;;;;;;;;;;10408971;28;20600;-54
2022/10/03 20:10:33;;;;;;;14.52;3.63;;;;;;;;;;10408364;28;20025;-52
2022/10/03 20:15:54;;;;;;;24.25;3.03;;;;;;;;;;10407583;28;20300;-54
2022/10/03 20:20:56;;;;;;;15.85;2.92;;;;;;;;;;10406300;28;20029;-53
2022/10/03 20:26:10;;;;;;;10.60;2.80;;;;;;;;;;10407604;28;20060;-49
2022/10/03 20:31:17;;;;;;;15.55;3.08;;;;;;;;;;10408288;28;20108;-54
2022/10/03 20:36:23;;;;;;;11.70;2.50;;;;;;;;;;10408446;28;20347;-49
2022/10/03 20:41:38;;;;;;;15.70;2.47;;;;;;;;;;10408002;28;20423;-55
2022/10/03 20:46:40;;;;;;;30.38;3.25;;;;;;;;;;10408019;28;20265;-49
2022/10/03 20:51:54;;;;;;;23.05;3.28;;;;;;;;;;10411088;28;20273;-51
2022/10/03 20:56:55;;;;;;;21.15;3.28;;;;;;;;;;10416018;28;20029;-53
2022/10/03 21:02:00;;;;;;;17.75;2.80;;;;;;;;;;10413604;28;20385;-50
2022/10/03 21:07:00;;;;;;;13.07;2.42;;;;;;;;;;10413457;28;20276;-52
2022/10/03 21:12:01;;;;;;;17.40;2.78;;;;;;;;;;10414819;28;20289;-51
2022/10/03 21:17:02;;;;;;;8.25;2.55;;;;;;;;;;10415846;28;20095;-48
2022/10/03 21:22:03;;;;;;;18.75;2.97;;;;;;;;;;10414864;28;20080;-51
2022/10/03 21:27:05;;;;;;;9.68;3.10;;;;;;;;;;10414404;28;20440;-52
2022/10/03 21:32:08;;;;;;;12.98;2.30;;;;;;;;;;10415362;28;20331;-52
2022/10/03 21:37:14;;;;;;;7.97;2.50;;;;;;;;;;10415492;28;20076;-52
2022/10/03 21:42:21;;;;;;;5.30;2.25;;;;;;;;;;10414701;28;20177;-53
2022/10/03 21:47:30;;;;;;;14.45;2.42;;;;;;;;;;10414107;28;20109;-53
2022/10/03 21:52:39;;;;;;;8.95;2.70;;;;;;;;;;10415081;28;20048;-57
2022/10/03 21:57:55;;;;;;;8.25;2.25;;;;;;;;;;10414806;28;20101;-55
2022/10/03 22:03:18;;;;;;;9.07;2.53;;;;;;;;;;10414000;28;20033;-56
2022/10/03 22:08:21;;;;;;;6.40;2.22;;;;;;;;;;10413619;28;20026;-50
2022/10/03 22:13:23;;;;;;;6.50;2.28;;;;;;;;;;10412972;28;20080;-51
2022/10/03 22:18:24;;;;;;;7.88;2.90;;;;;;;;;;10413116;28;20022;-50
2022/10/03 22:23:24;;;;;;;5.93;2.03;;;;;;;;;;10413425;28;20045;-50
2022/10/03 22:28:43;;;;;;;8.45;2.20;;;;;;;;;;10413095;28;20147;-50
2022/10/03 22:33:43;;;;;;;6.00;2.25;;;;;;;;;;10412624;28;20491;-50
2022/10/03 22:38:44;;;;;;;6.28;2.22;;;;;;;;;;10412671;28;20041;-54
2022/10/03 22:43:45;;;;;;;4.47;2.35;;;;;;;;;;10412855;28;20033;-53
2022/10/03 22:48:49;;;;;;;5.55;2.20;;;;;;;;;;10412190;28;20030;-52
2022/10/03 22:53:52;;;;;;;6.63;2.20;;;;;;;;;;10412316;28;20107;-53
2022/10/03 22:58:52;;;;;;;6.78;2.33;;;;;;;;;;10411811;28;20025;-53
2022/10/03 23:03:54;;;;;;;4.70;2.00;;;;;;;;;;10411541;28;20550;-53
2022/10/03 23:09:07;;;;;;;6.78;2.20;;;;;;;;;;10411825;28;20037;-53
2022/10/03 23:14:16;;;;;;;3.97;1.92;;;;;;;;;;10409950;28;20508;-67
2022/10/03 23:19:26;;;;;;;2.67;1.80;;;;;;;;;;10410995;28;20065;-66
2022/10/03 23:24:26;;;;;;;10.05;2.10;;;;;;;;;;10410522;28;20083;-62
2022/10/03 23:29:26;;;;;;;4.32;2.03;;;;;;;;;;10410290;28;20032;-64
2022/10/03 23:34:36;;;;;;;6.77;2.50;;;;;;;;;;10410414;28;20029;-66
2022/10/03 23:39:37;;;;;;;6.18;2.05;;;;;;;;;;10410534;28;20029;-64
2022/10/03 23:44:48;;;;;;;3.67;2.08;;;;;;;;;;10410020;28;20213;-62
2022/10/03 23:49:49;;;;;;;7.03;2.00;;;;;;;;;;10410353;28;20104;-64
2022/10/03 23:54:51;;;;;;;5.43;2.38;;;;;;;;;;10409468;28;20029;-63
2022/10/03 23:59:52;;;;;;;5.72;2.20;;;;;;;;;;10409614;28;20101;-62
